Time;durP1;ratioP1;P1;durP2;ratioP2;P2;SDS_P1;SDS_P2;PMS_P1;PMS_P2;Temp;Humidity;BMP_temperature;BMP_pressure;BME280_temperature;BME280_humidity;BME280_pressure;Samples;Min_cycle;Max_cycle;Signal;HPM_P1;HPM_P2
2023/05/09 00:01:15;;;;;;;31.95;24.85;;;;;;;13.96;100.00;101628.22;4989289;28;20101;-64
2023/05/09 00:03:41;;;;;;;33.15;24.02;;;;;;;13.94;100.00;101632.53;4989487;28;20031;-63
2023/05/09 00:06:07;;;;;;;31.85;24.67;;;;;;;13.91;100.00;101630.69;4983203;28;20033;-64
2023/05/09 00:08:33;;;;;;;31.65;24.95;;;;;;;13.90;100.00;101623.72;4969472;28;20383;-63
2023/05/09 00:10:58;;;;;;;32.95;25.17;;;;;;;13.86;100.00;101615.75;4988563;28;20041;-63
2023/05/09 00:13:24;;;;;;;33.05;26.23;;;;;;;13.86;100.00;101613.16;4988947;28;20117;-64
2023/05/09 00:15:52;;;;;;;33.60;25.70;;;;;;;13.84;100.00;101610.50;4988250;28;20515;-64
2023/05/09 00:18:19;;;;;;;32.03;26.30;;;;;;;13.84;100.00;101618.31;4988184;28;20031;-64
2023/05/09 00:20:44;;;;;;;32.25;27.35;;;;;;;13.84;100.00;101610.50;4983825;28;20546;-63
2023/05/09 00:23:09;;;;;;;34.80;26.45;;;;;;;13.83;100.00;101613.97;4969575;28;20026;-64
2023/05/09 00:25:34;;;;;;;30.98;25.85;;;;;;;13.83;100.00;101608.75;4969093;28;20041;-63
2023/05/09 00:28:00;;;;;;;28.75;23.63;;;;;;;13.84;100.00;101605.28;4968544;28;20031;-64
2023/05/09 00:30:25;;;;;;;29.10;22.60;;;;;;;13.82;100.00;101606.97;4969120;28;20045;-64
2023/05/09 00:32:50;;;;;;;31.45;23.42;;;;;;;13.83;100.00;101598.31;4969327;28;20037;-64
2023/05/09 00:35:16;;;;;;;26.08;22.55;;;;;;;13.82;100.00;101596.53;4969288;28;20025;-64
2023/05/09 00:37:41;;;;;;;28.23;21.88;;;;;;;13.81;100.00;101597.38;4968303;28;20391;-64
2023/05/09 00:40:08;;;;;;;27.95;22.27;;;;;;;13.81;100.00;101592.19;4969041;28;20081;-63
2023/05/09 00:42:34;;;;;;;27.55;22.23;;;;;;;13.81;100.00;101592.19;4968897;28;20027;-63
2023/05/09 00:45:00;;;;;;;26.02;21.30;;;;;;;13.79;100.00;101580.81;4968583;28;20357;-64
2023/05/09 00:47:26;;;;;;;23.58;20.08;;;;;;;13.79;100.00;101586.94;4979453;28;20126;-64
2023/05/09 00:49:52;;;;;;;27.23;20.85;;;;;;;13.79;100.00;101588.63;4975067;28;20031;-63
2023/05/09 00:52:22;;;;;;;25.83;21.67;;;;;;;13.81;100.00;101589.56;4988246;28;20475;-63
2023/05/09 00:54:48;;;;;;;22.65;20.00;;;;;;;13.82;100.00;101588.72;4970635;28;20014;-63
2023/05/09 00:57:13;;;;;;;26.60;21.52;;;;;;;13.84;100.00;101581.84;4987688;28;20026;-64
2023/05/09 00:59:39;;;;;;;26.55;20.95;;;;;;;13.81;100.00;101579.16;4987342;28;20431;-64
2023/05/09 01:02:04;;;;;;;23.83;19.35;;;;;;;13.80;100.00;101580.88;4975551;28;20065;-64
2023/05/09 01:04:30;;;;;;;26.90;20.85;;;;;;;13.80;100.00;101566.94;4974791;28;20026;-64
2023/05/09 01:07:08;;;;;;;25.85;20.95;;;;;;;13.79;100.00;101562.59;4975557;28;20054;-63
2023/05/09 01:09:52;;;;;;;25.52;21.05;;;;;;;13.81;100.00;101558.31;4968230;28;20173;-64
2023/05/09 01:12:56;;;;;;;25.98;21.45;;;;;;;13.79;100.00;101549.56;4968979;28;20088;-63
2023/05/09 01:16:00;;;;;;;24.63;20.85;;;;;;;13.81;100.00;101550.50;4904554;29;20103;-64
2023/05/09 01:18:33;;;;;;;26.67;19.65;;;;;;;13.81;100.00;101538.34;4954682;28;20069;-64
2023/05/09 01:21:10;;;;;;;23.38;19.33;;;;;;;13.79;100.00;101534.84;4971080;28;20050;-64
2023/05/09 01:23:48;;;;;;;22.67;19.42;;;;;;;13.77;100.00;101530.41;4980878;28;20033;-63
2023/05/09 01:26:20;;;;;;;24.70;19.95;;;;;;;13.75;100.00;101527.75;4968683;28;20097;-64
2023/05/09 01:29:13;;;;;;;22.65;20.25;;;;;;;13.74;100.00;101522.50;4972072;28;20026;-64
2023/05/09 01:31:42;;;;;;;20.08;17.85;;;;;;;13.73;100.00;101518.13;4990622;28;20042;-63
2023/05/09 01:34:10;;;;;;;21.85;18.50;;;;;;;13.73;100.00;101516.41;4990996;28;20101;-63
2023/05/09 01:36:38;;;;;;;25.63;20.15;;;;;;;13.73;100.00;101512.91;4991068;28;20030;-63
2023/05/09 01:39:05;;;;;;;21.30;19.00;;;;;;;13.72;100.00;101516.38;4991242;28;20092;-64
2023/05/09 01:41:33;;;;;;;20.23;17.83;;;;;;;13.72;100.00;101521.56;4990809;28;20022;-64
2023/05/09 01:44:02;;;;;;;22.33;18.88;;;;;;;13.71;100.00;101509.41;4981305;28;20031;-64
2023/05/09 01:46:28;;;;;;;21.30;18.25;;;;;;;13.70;100.00;101505.91;4975266;28;20034;-64
2023/05/09 01:48:54;;;;;;;24.90;19.42;;;;;;;13.67;100.00;101509.28;4984294;28;20672;-63
2023/05/09 01:51:21;;;;;;;26.02;20.20;;;;;;;13.64;100.00;101506.59;4990147;28;20081;-63
2023/05/09 01:53:49;;;;;;;24.27;20.25;;;;;;;13.61;100.00;101497.81;4990774;28;20030;-64
2023/05/09 01:56:16;;;;;;;22.95;18.77;;;;;;;13.61;100.00;101487.38;4990533;28;20418;-64
2023/05/09 01:58:43;;;;;;;26.30;20.08;;;;;;;13.57;100.00;101495.13;4990862;28;20463;-64
2023/05/09 02:01:09;;;;;;;25.20;19.17;;;;;;;13.54;100.00;101492.44;4990561;28;20114;-64
2023/05/09 02:03:37;;;;;;;23.15;18.73;;;;;;;13.53;100.00;101490.66;4990885;28;20046;-64
2023/05/09 02:06:04;;;;;;;23.08;19.20;;;;;;;13.51;100.00;101496.63;4985053;28;20038;-63
2023/05/09 02:08:30;;;;;;;23.80;19.48;;;;;;;13.49;100.00;101493.09;4983259;28;20147;-63
2023/05/09 02:10:55;;;;;;;26.48;20.83;;;;;;;13.49;100.00;101483.53;4972403;28;20071;-64
2023/05/09 02:13:20;;;;;;;25.30;20.55;;;;;;;13.48;100.00;101491.31;4970997;28;20058;-65
2023/05/09 02:15:46;;;;;;;24.67;20.90;;;;;;;13.48;100.00;101486.09;4983811;28;20046;-64
2023/05/09 02:18:12;;;;;;;26.40;20.75;;;;;;;13.45;100.00;101492.97;4971627;28;20109;-64
2023/05/09 02:20:39;;;;;;;26.13;21.42;;;;;;;13.45;100.00;101482.56;4974374;28;20027;-67
2023/05/09 02:23:04;;;;;;;23.65;20.60;;;;;;;13.44;100.00;101479.91;4971217;28;20126;-63
2023/05/09 02:25:31;;;;;;;22.70;19.63;;;;;;;13.43;100.00;101484.25;4983595;28;20379;-63
2023/05/09 02:27:58;;;;;;;22.77;19.15;;;;;;;13.43;100.00;101489.47;4980573;28;20026;-64
2023/05/09 02:30:25;;;;;;;23.45;19.65;;;;;;;13.45;100.00;101492.97;4973247;28;20442;-63
2023/05/09 02:32:55;;;;;;;24.55;19.40;;;;;;;13.47;100.00;101494.75;4982242;28;20030;-63
2023/05/09 02:35:23;;;;;;;22.95;19.77;;;;;;;13.47;100.00;101484.34;4977081;28;20026;-64
2023/05/09 02:37:50;;;;;;;24.40;19.50;;;;;;;13.48;100.00;101491.31;4990301;28;20049;-64
2023/05/09 02:40:16;;;;;;;23.38;19.40;;;;;;;13.48;100.00;101483.50;4970800;28;20064;-64
2023/05/09 02:42:42;;;;;;;22.48;19.63;;;;;;;13.45;100.00;101492.97;4988959;28;20054;-64
2023/05/09 02:45:09;;;;;;;23.20;18.60;;;;;;;13.43;100.00;101493.78;4989200;28;20057;-63
2023/05/09 02:47:34;;;;;;;25.73;20.45;;;;;;;13.42;100.00;101485.09;4989219;28;20483;-64
2023/05/09 02:50:00;;;;;;;24.15;19.17;;;;;;;13.38;100.00;101475.44;4983883;28;20042;-63
2023/05/09 02:52:25;;;;;;;23.75;18.83;;;;;;;13.36;100.00;101471.91;4983076;28;20170;-64
2023/05/09 02:54:50;;;;;;;24.33;18.23;;;;;;;13.35;100.00;101470.09;4989233;28;20222;-64
2023/05/09 02:57:16;;;;;;;21.65;18.80;;;;;;;13.32;100.00;101467.41;4989873;28;20026;-64
2023/05/09 02:59:41;;;;;;;22.25;17.95;;;;;;;13.32;100.00;101464.81;4983032;28;20026;-64
2023/05/09 03:02:06;;;;;;;21.58;18.27;;;;;;;13.30;100.00;101456.97;4983010;28;20393;-64
2023/05/09 03:04:32;;;;;;;22.98;18.38;;;;;;;13.27;100.00;101459.47;4989507;28;20038;-64
2023/05/09 03:06:57;;;;;;;28.63;18.83;;;;;;;13.26;100.00;101459.44;4989825;28;20077;-63
2023/05/09 03:09:22;;;;;;;24.60;19.05;;;;;;;13.20;100.00;101450.59;4988190;28;20072;-63
2023/05/09 03:11:49;;;;;;;22.60;18.63;;;;;;;13.18;100.00;101454.00;4989535;28;20041;-63
2023/05/09 03:14:14;;;;;;;26.25;19.30;;;;;;;13.16;100.00;101447.84;4975944;28;20034;-63
2023/05/09 03:16:39;;;;;;;24.58;18.67;;;;;;;13.14;100.00;101444.31;4989302;28;20062;-64
2023/05/09 03:19:05;;;;;;;24.95;20.35;;;;;;;13.11;100.00;101445.13;4982427;28;20027;-64
2023/05/09 03:21:30;;;;;;;22.48;17.67;;;;;;;13.09;100.00;101441.56;4982286;28;20034;-64
2023/05/09 03:23:56;;;;;;;24.80;19.33;;;;;;;13.07;100.00;101432.84;4974435;28;20571;-63
2023/05/09 03:26:21;;;;;;;22.67;18.58;;;;;;;13.05;100.00;101439.69;4973201;28;20105;-64
2023/05/09 03:28:47;;;;;;;25.27;20.60;;;;;;;13.05;100.00;101442.31;4974984;28;20019;-64
2023/05/09 03:31:13;;;;;;;23.63;19.00;;;;;;;13.04;100.00;101444.00;4983136;28;20030;-64
2023/05/09 03:33:38;;;;;;;21.92;19.15;;;;;;;13.01;100.00;101438.72;4956989;28;20025;-63
2023/05/09 03:36:04;;;;;;;26.10;19.85;;;;;;;13.01;100.00;101437.84;4972903;28;20027;-64
2023/05/09 03:38:29;;;;;;;25.83;19.85;;;;;;;13.00;100.00;101436.97;4973748;28;20390;-64
2023/05/09 03:40:55;;;;;;;27.25;21.13;;;;;;;13.01;100.00;101438.72;4972976;28;20427;-64
2023/05/09 03:43:20;;;;;;;27.20;20.13;;;;;;;13.00;100.00;101429.16;4974051;28;20031;-64
2023/05/09 03:45:45;;;;;;;26.33;19.70;;;;;;;13.02;100.00;101429.22;4982478;28;20023;-63
2023/05/09 03:48:11;;;;;;;27.20;21.05;;;;;;;13.02;100.00;101418.81;4988035;28;20041;-64
2023/05/09 03:50:36;;;;;;;24.25;20.02;;;;;;;13.02;100.00;101430.09;4978304;28;20034;-64
2023/05/09 03:53:01;;;;;;;26.95;19.67;;;;;;;13.02;100.00;101421.41;4972414;28;20117;-64
2023/05/09 03:55:27;;;;;;;26.17;19.50;;;;;;;13.01;100.00;101417.03;4986945;28;20061;-63
2023/05/09 03:57:53;;;;;;;24.48;19.65;;;;;;;13.00;100.00;101421.38;4986088;28;20034;-64
2023/05/09 04:00:18;;;;;;;22.75;18.48;;;;;;;13.00;100.00;101415.28;4986770;28;20057;-64
2023/05/09 04:02:44;;;;;;;25.85;21.08;;;;;;;13.00;100.00;101417.88;4985945;28;20414;-64
2023/05/09 04:05:09;;;;;;;23.08;19.73;;;;;;;12.99;100.00;101418.72;4975048;28;20031;-63
2023/05/09 04:07:34;;;;;;;26.10;19.48;;;;;;;12.97;100.00;101413.44;4985715;28;20108;-64
2023/05/09 04:10:00;;;;;;;26.25;20.65;;;;;;;12.97;100.00;101410.84;4988075;28;20125;-64
2023/05/09 04:12:25;;;;;;;24.77;19.92;;;;;;;12.95;100.00;101397.78;4983423;28;20030;-64
2023/05/09 04:14:51;;;;;;;28.60;20.15;;;;;;;12.93;100.00;101399.44;4980210;28;20038;-64
2023/05/09 04:17:16;;;;;;;23.45;18.80;;;;;;;12.93;100.00;101385.59;4987983;28;20037;-64
2023/05/09 04:19:42;;;;;;;26.75;19.92;;;;;;;12.89;100.00;101392.41;4988486;28;20366;-64
2023/05/09 04:22:07;;;;;;;25.13;18.92;;;;;;;12.90;100.00;101381.16;4978061;28;20352;-64
2023/05/09 04:24:32;;;;;;;22.77;19.17;;;;;;;12.90;100.00;101378.56;4987563;28;20038;-64
2023/05/09 04:26:58;;;;;;;24.08;18.85;;;;;;;12.90;100.00;101378.56;4974971;28;20805;-63
2023/05/09 04:29:23;;;;;;;24.45;18.73;;;;;;;12.90;100.00;101380.31;4987966;28;20073;-63
2023/05/09 04:31:49;;;;;;;23.98;19.05;;;;;;;12.92;100.00;101387.28;4970282;28;20254;-63
2023/05/09 04:34:14;;;;;;;25.17;18.55;;;;;;;12.92;100.00;101389.91;4970210;28;20468;-64
2023/05/09 04:36:39;;;;;;;23.25;18.70;;;;;;;12.92;100.00;101381.19;4987283;28;20018;-63
2023/05/09 04:39:05;;;;;;;22.15;18.45;;;;;;;12.93;100.00;101381.25;4988168;28;20057;-64
2023/05/09 04:41:31;;;;;;;25.50;18.95;;;;;;;12.94;100.00;101380.44;4987706;28;20033;-64
2023/05/09 04:43:56;;;;;;;22.17;17.50;;;;;;;12.95;100.00;101374.38;4988048;28;20130;-64
2023/05/09 04:46:21;;;;;;;20.58;17.60;;;;;;;12.96;100.00;101373.56;4986614;28;20316;-64
2023/05/09 04:48:46;;;;;;;22.23;18.33;;;;;;;12.96;100.00;101368.34;4987972;28;20018;-64
2023/05/09 04:51:12;;;;;;;20.23;17.65;;;;;;;13.00;100.00;101368.44;4987676;28;20030;-64
2023/05/09 04:53:37;;;;;;;21.67;17.90;;;;;;;13.01;100.00;101367.59;4988098;28;20062;-63
2023/05/09 04:56:02;;;;;;;20.08;17.98;;;;;;;13.03;100.00;101368.53;4987417;28;20030;-63
2023/05/09 04:58:28;;;;;;;23.25;18.05;;;;;;;13.07;100.00;101362.59;4987451;28;20533;-63
2023/05/09 05:00:53;;;;;;;20.00;17.55;;;;;;;13.08;100.00;101361.75;4987125;28;20042;-65
2023/05/09 05:03:18;;;;;;;21.30;17.73;;;;;;;13.13;100.00;101360.16;4987746;28;20033;-64
2023/05/09 05:05:44;;;;;;;19.38;17.13;;;;;;;13.16;100.00;101357.66;4989081;28;20026;-64
2023/05/09 05:08:09;;;;;;;20.48;18.35;;;;;;;13.18;100.00;101355.09;4986303;28;20026;-64
2023/05/09 05:10:35;;;;;;;21.02;16.92;;;;;;;13.20;100.00;101346.50;4988489;28;20113;-63
2023/05/09 05:13:00;;;;;;;23.23;17.30;;;;;;;13.21;100.00;101336.97;4982282;28;20060;-64
2023/05/09 05:15:26;;;;;;;19.05;17.10;;;;;;;13.19;100.00;101329.13;4975415;28;20403;-64
2023/05/09 05:17:51;;;;;;;20.63;17.05;;;;;;;13.19;100.00;101329.13;4983497;28;20022;-63
2023/05/09 05:20:17;;;;;;;20.48;17.63;;;;;;;13.21;100.00;101322.25;4981686;28;20036;-63
2023/05/09 05:22:42;;;;;;;24.15;18.80;;;;;;;13.23;100.00;101326.59;4972592;28;20026;-64
2023/05/09 05:25:07;;;;;;;18.50;16.65;;;;;;;13.26;100.00;101318.91;4984710;28;20027;-64
2023/05/09 05:27:33;;;;;;;21.05;18.80;;;;;;;13.27;100.00;101321.56;4971812;28;20061;-64
2023/05/09 05:29:58;;;;;;;20.25;18.08;;;;;;;13.30;100.00;101318.13;4973184;28;20104;-63
2023/05/09 05:32:23;;;;;;;19.73;17.65;;;;;;;13.31;100.00;101307.75;4987222;28;20041;-63
2023/05/09 05:34:49;;;;;;;21.38;18.48;;;;;;;13.34;100.00;101312.19;4989398;28;20494;-64
2023/05/09 05:37:14;;;;;;;21.17;17.85;;;;;;;13.38;100.00;101318.38;4974520;28;20030;-64
2023/05/09 05:39:39;;;;;;;22.13;18.40;;;;;;;13.41;100.00;101308.03;4973149;28;20154;-64
2023/05/09 05:42:05;;;;;;;18.83;16.92;;;;;;;13.45;100.00;101307.28;4974327;28;20427;-63
2023/05/09 05:44:30;;;;;;;20.52;18.27;;;;;;;13.52;100.00;101310.94;4964549;28;20035;-64
2023/05/09 05:46:55;;;;;;;22.75;17.77;;;;;;;13.59;100.00;101309.41;4982339;28;20026;-64
2023/05/09 05:49:20;;;;;;;20.48;16.65;;;;;;;13.58;100.00;101298.13;4971220;28;20093;-64
2023/05/09 05:51:46;;;;;;;19.45;17.50;;;;;;;13.64;100.00;101298.28;4978763;28;20027;-63
2023/05/09 05:54:11;;;;;;;19.60;16.63;;;;;;;13.67;100.00;101300.09;4979440;28;20031;-64
2023/05/09 05:56:37;;;;;;;23.00;17.13;;;;;;;13.73;100.00;101294.13;4977128;28;20032;-64
2023/05/09 05:59:02;;;;;;;22.58;16.23;;;;;;;13.77;100.00;101299.50;4989570;28;20446;-64
2023/05/09 06:01:27;;;;;;;21.02;16.42;;;;;;;13.80;100.00;101291.75;4989821;28;20032;-64
2023/05/09 06:03:55;;;;;;;18.88;15.35;;;;;;;13.86;100.00;101285.81;4991059;28;20077;-63
2023/05/09 06:06:21;;;;;;;16.83;15.05;;;;;;;13.91;100.00;101289.41;4985020;28;20042;-64
2023/05/09 06:08:50;;;;;;;16.85;15.10;;;;;;;13.98;100.00;101289.56;4990506;28;20026;-64
2023/05/09 06:11:15;;;;;;;16.27;14.48;;;;;;;14.02;100.00;101286.19;4973278;28;20042;-64
2023/05/09 06:13:41;;;;;;;16.83;15.18;;;;;;;14.05;100.00;101276.72;4988663;28;20030;-64
2023/05/09 06:16:07;;;;;;;15.90;14.25;;;;;;;14.08;100.00;101270.72;4990001;28;20042;-64
2023/05/09 06:18:34;;;;;;;15.60;13.82;;;;;;;14.12;100.00;101261.25;4983539;28;20027;-64
2023/05/09 06:20:59;;;;;;;15.85;14.20;;;;;;;14.17;100.00;101270.06;4977103;28;20058;-63
2023/05/09 06:23:25;;;;;;;16.50;14.20;;;;;;;14.20;100.00;101262.31;4982995;28;20054;-64
2023/05/09 06:25:50;;;;;;;15.55;13.90;;;;;;;14.23;100.00;101269.34;4971762;28;20046;-64
2023/05/09 06:28:15;;;;;;;17.08;15.20;;;;;;;14.26;100.00;101265.06;4983628;28;20029;-64
2023/05/09 06:30:41;;;;;;;15.75;14.10;;;;;;;14.29;100.00;101264.25;4983590;28;20487;-64
2023/05/09 06:33:06;;;;;;;16.65;14.93;;;;;;;14.31;100.00;101267.78;4981575;28;20030;-64
2023/05/09 06:35:31;;;;;;;16.27;14.68;;;;;;;14.33;100.00;101266.09;4988131;28;20407;-64
2023/05/09 06:37:57;;;;;;;15.75;14.25;;;;;;;14.35;100.00;101264.41;4987932;28;20065;-63
2023/05/09 06:40:22;;;;;;;15.95;14.02;;;;;;;14.38;100.00;101259.25;4982876;28;20049;-63
2023/05/09 06:42:47;;;;;;;16.48;14.80;;;;;;;14.39;100.00;101261.00;4981680;28;20084;-63
2023/05/09 06:45:13;;;;;;;15.73;14.02;;;;;;;14.43;100.00;101253.28;4984029;28;20041;-63
2023/05/09 06:47:38;;;;;;;15.25;13.20;;;;;;;14.44;100.00;101253.31;4977095;28;20018;-64
2023/05/09 06:50:04;;;;;;;16.42;14.45;;;;;;;14.47;100.00;101253.38;4990136;28;20093;-64
2023/05/09 06:52:29;;;;;;;16.35;14.38;;;;;;;14.51;100.00;101254.31;4988669;28;20022;-64
2023/05/09 06:54:54;;;;;;;15.10;13.55;;;;;;;14.54;100.00;101254.38;4981470;28;20015;-64
2023/05/09 06:57:20;;;;;;;14.95;13.45;;;;;;;14.56;100.00;101242.25;4983799;28;20018;-64
2023/05/09 06:59:45;;;;;;;14.95;13.35;;;;;;;14.59;100.00;101250.13;4983092;28;20386;-64
2023/05/09 07:02:10;;;;;;;16.25;13.18;;;;;;;14.62;100.00;101242.41;4990038;28;20045;-64
2023/05/09 07:04:36;;;;;;;14.32;11.77;;;;;;;14.68;100.00;101235.56;4989014;28;20266;-63
2023/05/09 07:07:01;;;;;;;13.25;11.73;;;;;;;14.75;100.00;101237.44;4989592;28;20049;-64
2023/05/09 07:09:27;;;;;;;13.95;12.25;;;;;;;14.79;100.00;101235.78;4989302;28;20030;-64
2023/05/09 07:11:54;;;;;;;12.85;11.50;;;;;;;14.81;100.00;101232.38;4989271;28;20030;-63
2023/05/09 07:14:19;;;;;;;12.75;11.48;;;;;;;14.87;100.00;101235.13;4982063;28;20479;-64
2023/05/09 07:16:45;;;;;;;11.98;10.77;;;;;;;14.85;100.00;101229.00;4989504;28;20065;-64
2023/05/09 07:19:11;;;;;;;11.45;10.32;;;;;;;14.84;100.00;101227.22;4966835;28;20050;-64
2023/05/09 07:21:36;;;;;;;12.13;10.55;;;;;;;14.87;100.00;101227.31;4975256;28;20467;-64
2023/05/09 07:24:02;;;;;;;12.73;10.23;;;;;;;14.85;100.00;101220.28;4987066;28;20062;-64
2023/05/09 07:26:27;;;;;;;11.35;10.13;;;;;;;14.85;100.00;101218.56;4989155;28;20030;-64
2023/05/09 07:28:53;;;;;;;11.60;10.45;;;;;;;14.82;100.00;101225.44;4987647;28;20464;-64
2023/05/09 07:31:18;;;;;;;13.02;10.30;;;;;;;14.83;100.00;101214.16;4988895;28;20026;-63
2023/05/09 07:33:44;;;;;;;11.52;10.43;;;;;;;14.81;100.00;101214.13;4988931;28;20105;-64
2023/05/09 07:36:12;;;;;;;11.57;9.90;;;;;;;14.83;100.00;101204.59;4989278;28;20490;-64
2023/05/09 07:38:38;;;;;;;10.30;9.00;;;;;;;14.87;100.00;101208.16;4988351;28;20258;-64
2023/05/09 07:41:03;;;;;;;10.77;9.05;;;;;;;14.86;100.00;101216.81;4989871;28;20362;-64
2023/05/09 07:43:29;;;;;;;10.27;9.23;;;;;;;14.77;100.00;101214.88;4988249;28;20022;-64
2023/05/09 07:45:54;;;;;;;10.10;8.60;;;;;;;14.72;100.00;101211.28;4974685;28;20031;-63
2023/05/09 07:48:20;;;;;;;9.93;8.75;;;;;;;14.73;100.00;101213.06;4987240;28;20390;-64
2023/05/09 07:50:45;;;;;;;9.13;8.23;;;;;;;14.74;100.00;101212.19;4981012;28;20026;-64
2023/05/09 07:53:10;;;;;;;9.15;8.32;;;;;;;14.75;100.00;101203.53;4987665;28;20026;-64
2023/05/09 07:55:35;;;;;;;9.25;7.95;;;;;;;14.70;100.00;101206.03;4977951;28;20022;-64
2023/05/09 07:58:01;;;;;;;9.05;8.15;;;;;;;14.70;100.00;101205.16;4982794;28;20114;-64
2023/05/09 08:00:26;;;;;;;8.85;7.95;;;;;;;14.63;100.00;101207.66;4970144;28;20364;-64
2023/05/09 08:02:52;;;;;;;9.40;8.23;;;;;;;14.63;100.00;101201.53;4982597;28;20030;-64
2023/05/09 08:05:18;;;;;;;8.80;7.93;;;;;;;14.56;100.00;101190.09;4982134;28;20022;-63
2023/05/09 08:07:44;;;;;;;9.77;8.88;;;;;;;14.50;100.00;101193.47;4984765;28;20029;-64
2023/05/09 08:10:10;;;;;;;9.40;8.43;;;;;;;14.51;100.00;101186.53;4987552;28;20023;-64
2023/05/09 08:12:35;;;;;;;8.55;7.85;;;;;;;14.43;100.00;101182.88;4987024;28;20030;-64
2023/05/09 08:15:00;;;;;;;8.23;7.55;;;;;;;14.40;100.00;101176.75;4988559;28;20035;-64
2023/05/09 08:17:26;;;;;;;9.40;8.20;;;;;;;14.37;100.00;101176.66;4987621;28;20019;-64
2023/05/09 08:19:51;;;;;;;8.98;8.18;;;;;;;14.33;100.00;101172.25;4988360;28;20113;-64
2023/05/09 08:22:17;;;;;;;9.98;8.90;;;;;;;14.27;100.00;101169.50;4984445;28;20139;-64
2023/05/09 08:24:44;;;;;;;10.05;9.02;;;;;;;14.28;100.00;101164.31;4984085;28;20557;-64
2023/05/09 08:27:12;;;;;;;9.63;8.30;;;;;;;14.29;100.00;101155.66;4987600;28;20145;-64
2023/05/09 08:29:37;;;;;;;9.02;8.27;;;;;;;14.37;100.00;101155.81;4987060;28;20022;-63
2023/05/09 08:32:02;;;;;;;8.82;7.90;;;;;;;14.43;100.00;101156.81;4982338;28;20423;-64
2023/05/09 08:34:30;;;;;;;9.05;8.13;;;;;;;14.49;100.00;101157.81;4987816;28;20018;-64
2023/05/09 08:36:55;;;;;;;10.13;8.98;;;;;;;14.42;100.00;101155.94;4987879;28;20119;-64
2023/05/09 08:39:20;;;;;;;9.88;8.48;;;;;;;14.46;100.00;101144.72;4986257;28;20135;-64
2023/05/09 08:41:46;;;;;;;9.57;8.77;;;;;;;14.49;100.00;101141.28;4983059;28;20035;-64
2023/05/09 08:44:12;;;;;;;9.05;8.30;;;;;;;14.48;100.00;101149.97;4985703;28;20065;-64
2023/05/09 08:46:41;;;;;;;10.57;9.57;;;;;;;14.46;100.00;101134.28;4976670;28;20153;-64
2023/05/09 08:49:07;;;;;;;10.55;9.05;;;;;;;14.43;100.00;101136.81;4988210;28;20034;-64
2023/05/09 08:51:34;;;;;;;12.25;8.88;;;;;;;14.40;100.00;101141.97;4987614;28;20038;-64
2023/05/09 08:54:00;;;;;;;10.40;9.43;;;;;;;14.36;100.00;101146.25;4986990;28;20053;-63
2023/05/09 08:56:25;;;;;;;9.93;8.98;;;;;;;14.35;100.00;101141.88;4987195;28;20057;-64
2023/05/09 08:58:52;;;;;;;10.27;9.27;;;;;;;14.35;100.00;101141.00;4988039;28;20029;-64
2023/05/09 09:01:18;;;;;;;9.38;8.25;;;;;;;14.29;100.00;101137.41;4987245;28;20442;-64
2023/05/09 09:03:48;;;;;;;8.85;8.05;;;;;;;14.29;100.00;101140.03;4986918;28;20033;-64
2023/05/09 09:06:14;;;;;;;8.82;7.72;;;;;;;14.34;100.00;101137.50;4987647;28;20030;-64
2023/05/09 09:08:40;;;;;;;10.00;8.18;;;;;;;14.40;100.00;101132.44;4986903;28;20022;-63
2023/05/09 09:11:06;;;;;;;7.38;6.70;;;;;;;14.43;100.00;101131.59;4988007;28;20033;-64
2023/05/09 09:13:37;;;;;;;7.40;6.20;;;;;;;14.44;100.00;101129.88;4977204;28;20030;-64
2023/05/09 09:16:03;;;;;;;;;;;;;;;14.46;100.00;101125.59;4978754;28;20105;-64
2023/05/09 09:18:32;;;;;;;6.68;6.00;;;;;;;14.49;100.00;101128.25;4986823;28;19914;-64
2023/05/09 09:21:09;;;;;;;7.20;5.75;;;;;;;14.50;100.00;101122.16;4981495;28;20053;-64
2023/05/09 09:23:38;;;;;;;4.45;4.05;;;;;;;14.46;100.00;101126.47;4985901;28;20108;-63
2023/05/09 09:26:03;;;;;;;5.80;3.63;;;;;;;14.34;100.00;101121.88;4980313;28;20030;-64
2023/05/09 09:28:29;;;;;;;4.10;3.60;;;;;;;14.33;100.00;101122.72;4987625;28;20489;-64
2023/05/09 09:30:55;;;;;;;4.57;3.47;;;;;;;14.31;100.00;101120.91;4986494;28;20022;-64
2023/05/09 09:33:21;;;;;;;3.72;3.42;;;;;;;14.24;100.00;101120.81;4982373;28;20025;-64
2023/05/09 09:35:51;;;;;;;5.05;3.17;;;;;;;14.15;100.00;101116.28;4986682;28;20040;-64
2023/05/09 09:38:18;;;;;;;6.18;3.50;;;;;;;14.07;100.00;101112.59;4986762;28;20037;-64
2023/05/09 09:40:56;;;;;;;4.50;3.45;;;;;;;14.05;100.00;101111.69;4985857;28;20102;-64
2023/05/09 09:43:29;;;;;;;3.97;3.38;;;;;;;13.97;100.00;101100.22;4985824;28;20089;-64
2023/05/09 09:45:55;;;;;;;4.38;3.97;;;;;;;13.99;100.00;101109.84;4980732;28;20038;-64
2023/05/09 09:48:32;;;;;;;4.22;3.80;;;;;;;14.01;100.00;101108.13;4974352;28;20026;-63
2023/05/09 09:51:02;;;;;;;3.65;3.35;;;;;;;13.96;100.00;101107.16;4986915;28;20030;-63
2023/05/09 09:53:30;;;;;;;4.93;3.87;;;;;;;13.98;100.00;101100.25;4990829;28;20026;-63
2023/05/09 09:55:56;;;;;;;4.10;3.80;;;;;;;13.98;100.00;101102.88;4990215;28;20014;-64
2023/05/09 09:58:23;;;;;;;4.75;4.35;;;;;;;14.00;100.00;101100.28;4990341;28;20076;-63
2023/05/09 10:01:04;;;;;;;4.60;4.20;;;;;;;14.02;100.00;101098.59;4990048;28;20176;-64
2023/05/09 10:03:40;;;;;;;4.93;4.00;;;;;;;14.07;100.00;101091.75;4989925;28;20399;-64
2023/05/09 10:06:09;;;;;;;4.68;4.22;;;;;;;14.09;100.00;101084.88;4989278;28;20111;-64
2023/05/09 10:08:35;;;;;;;4.32;3.92;;;;;;;14.16;100.00;101086.75;4990852;28;20092;-64
2023/05/09 10:11:00;;;;;;;5.53;4.13;;;;;;;14.17;100.00;101078.06;4990114;28;20026;-63
2023/05/09 10:13:26;;;;;;;6.63;4.28;;;;;;;14.22;100.00;101080.78;4990544;28;20029;-64
2023/05/09 10:15:53;;;;;;;4.75;4.32;;;;;;;14.26;100.00;101079.13;4960057;28;20074;-63
2023/05/09 10:18:23;;;;;;;5.40;4.90;;;;;;;14.29;100.00;101076.59;4985981;28;20098;-64
2023/05/09 10:20:49;;;;;;;8.40;4.60;;;;;;;14.28;100.00;101075.69;4986820;28;20022;-63
2023/05/09 10:23:16;;;;;;;4.82;4.43;;;;;;;14.24;100.00;101079.09;4990162;28;20053;-63
2023/05/09 10:25:55;;;;;;;5.38;4.47;;;;;;;14.20;100.00;101073.78;4989586;28;20475;-64
2023/05/09 10:28:25;;;;;;;6.10;4.70;;;;;;;14.14;100.00;101071.91;4990127;28;20032;-64
2023/05/09 10:31:22;;;;;;;5.32;4.20;;;;;;;14.11;100.00;101066.66;4989956;28;20434;-64
2023/05/09 10:33:49;;;;;;;8.35;4.40;;;;;;;14.06;100.00;101069.16;4973502;28;20042;-64
2023/05/09 10:36:17;;;;;;;5.35;4.65;;;;;;;14.00;100.00;101064.69;4989133;28;20100;-64
2023/05/09 10:38:43;;;;;;;5.88;5.05;;;;;;;13.97;100.00;101069.84;4990191;28;20025;-64
2023/05/09 10:41:10;;;;;;;6.95;5.38;;;;;;;13.98;100.00;101058.56;4990351;28;20034;-64
2023/05/09 10:43:35;;;;;;;6.72;5.32;;;;;;;13.95;100.00;101055.03;4988925;28;20121;-64
2023/05/09 10:46:03;;;;;;;6.32;5.13;;;;;;;13.97;100.00;101051.63;4987315;28;20117;-64
2023/05/09 10:48:31;;;;;;;7.00;4.95;;;;;;;13.94;100.00;101046.34;4989434;28;20018;-64
2023/05/09 10:50:56;;;;;;;8.15;5.95;;;;;;;13.91;100.00;101049.75;4988771;28;20065;-64
2023/05/09 10:53:23;;;;;;;5.55;5.05;;;;;;;13.80;100.00;101043.41;4989488;28;20494;-64
2023/05/09 10:55:56;;;;;;;6.45;5.25;;;;;;;13.84;100.00;101047.88;4988405;28;20637;-64
2023/05/09 10:58:32;;;;;;;7.10;6.18;;;;;;;13.85;100.00;101038.34;4985192;28;20069;-63
2023/05/09 11:01:02;;;;;;;8.18;6.72;;;;;;;13.82;100.00;101033.91;4984685;28;20033;-64
2023/05/09 11:03:48;;;;;;;7.32;6.72;;;;;;;13.86;100.00;101035.75;4980996;28;20030;-64
2023/05/09 11:06:49;;;;;;;6.60;6.00;;;;;;;13.86;100.00;101035.75;4986675;28;20064;-64